Time;durP1;ratioP1;P1;durP2;ratioP2;P2;SDS_P1;SDS_P2;PMS_P1;PMS_P2;Temp;Humidity;BMP_temperature;BMP_pressure;BME280_temperature;BME280_humidity;BME280_pressure;Samples;Min_cycle;Max_cycle;Signal;HPM_P1;HPM_P2
2022/01/05 00:01:55;;;;;;;9.18;0.95;;;2.70;99.90;;;;;;5070952;28;20055;-76
2022/01/05 00:04:20;;;;;;;9.63;1.17;;;2.70;99.90;;;;;;5089515;28;20048;-76
2022/01/05 00:06:46;;;;;;;12.32;1.15;;;2.70;99.90;;;;;;5071173;28;20040;-76
2022/01/05 00:09:11;;;;;;;9.93;2.05;;;2.70;99.90;;;;;;5088958;28;20139;-76
2022/01/05 00:11:37;;;;;;;8.52;0.85;;;2.70;99.90;;;;;;5071105;28;20040;-76
2022/01/05 00:14:03;;;;;;;7.78;1.35;;;2.60;99.90;;;;;;5071173;28;20502;-76
2022/01/05 00:16:29;;;;;;;8.48;0.77;;;2.60;99.90;;;;;;5089222;28;20094;-76
2022/01/05 00:18:54;;;;;;;8.45;0.70;;;2.60;99.90;;;;;;5071168;28;20044;-76
2022/01/05 00:21:20;;;;;;;7.18;0.85;;;2.60;99.90;;;;;;5070411;28;20048;-76
2022/01/05 00:23:45;;;;;;;5.20;0.82;;;2.60;99.90;;;;;;5070827;28;20044;-76
2022/01/05 00:26:11;;;;;;;7.85;0.88;;;2.70;99.90;;;;;;5071231;28;20048;-76
2022/01/05 00:28:37;;;;;;;10.82;1.33;;;2.70;99.90;;;;;;5054263;28;20127;-76
2022/01/05 00:31:02;;;;;;;6.03;0.77;;;2.70;99.90;;;;;;5070694;28;20097;-76
2022/01/05 00:33:28;;;;;;;8.80;1.10;;;2.60;99.90;;;;;;5070238;28;20126;-76
2022/01/05 00:35:54;;;;;;;6.90;0.68;;;2.60;99.90;;;;;;5070830;28;20044;-76
2022/01/05 00:38:20;;;;;;;8.27;0.88;;;2.60;99.90;;;;;;5070858;28;20051;-76
2022/01/05 00:40:45;;;;;;;6.57;0.80;;;2.50;99.90;;;;;;5089099;28;20040;-76
2022/01/05 00:43:11;;;;;;;14.43;1.73;;;2.50;99.90;;;;;;5070283;28;20040;-76
2022/01/05 00:45:37;;;;;;;10.45;0.85;;;2.50;99.90;;;;;;5070905;28;20051;-76
2022/01/05 00:48:02;;;;;;;8.52;1.02;;;2.40;99.90;;;;;;5070915;28;20055;-76
2022/01/05 00:50:28;;;;;;;10.48;1.52;;;2.40;99.90;;;;;;5070196;28;20051;-76
2022/01/05 00:53:00;;;;;;;7.05;0.80;;;2.30;99.90;;;;;;5088830;28;20052;-76
2022/01/05 00:55:27;;;;;;;12.13;1.38;;;2.30;99.90;;;;;;5071077;28;20766;-76
2022/01/05 00:57:52;;;;;;;8.07;0.98;;;2.30;99.90;;;;;;5070490;28;20051;-76
2022/01/05 01:00:18;;;;;;;12.45;1.15;;;2.20;99.90;;;;;;5070576;28;20040;-76
2022/01/05 01:02:44;;;;;;;12.13;0.93;;;2.20;99.90;;;;;;5070248;28;20350;-76
2022/01/05 01:05:09;;;;;;;7.82;0.90;;;2.30;99.90;;;;;;5070800;28;20068;-76
2022/01/05 01:07:35;;;;;;;7.18;0.93;;;2.30;99.90;;;;;;5070264;28;20036;-76
2022/01/05 01:10:00;;;;;;;11.73;1.38;;;2.30;99.90;;;;;;5069906;28;20048;-76
2022/01/05 01:12:26;;;;;;;11.80;1.15;;;2.30;99.90;;;;;;5053723;28;20150;-76
2022/01/05 01:14:52;;;;;;;4.53;0.85;;;2.40;99.90;;;;;;5070331;28;20056;-76
2022/01/05 01:17:17;;;;;;;9.77;1.30;;;2.40;99.90;;;;;;5070454;28;20082;-76
2022/01/05 01:19:43;;;;;;;15.50;1.65;;;2.50;99.90;;;;;;5070484;28;20036;-76
2022/01/05 01:22:08;;;;;;;8.65;1.25;;;2.50;99.90;;;;;;5070070;28;20135;-76
2022/01/05 01:24:34;;;;;;;12.95;1.23;;;2.50;99.90;;;;;;5069862;28;20070;-76
2022/01/05 01:27:00;;;;;;;14.70;1.50;;;2.50;99.90;;;;;;5070518;28;20044;-76
2022/01/05 01:29:26;;;;;;;13.60;1.88;;;2.50;99.90;;;;;;5070181;28;20051;-76
2022/01/05 01:31:51;;;;;;;8.77;1.58;;;2.50;99.90;;;;;;5070379;28;20474;-76
2022/01/05 01:34:17;;;;;;;9.43;1.58;;;2.50;99.90;;;;;;5070457;28;20044;-76
2022/01/05 01:36:43;;;;;;;12.38;1.52;;;2.50;99.90;;;;;;5070535;28;20486;-76
2022/01/05 01:39:08;;;;;;;16.67;1.70;;;2.50;99.90;;;;;;5070356;28;20040;-76
2022/01/05 01:41:34;;;;;;;13.68;1.70;;;2.50;99.90;;;;;;5053346;28;20040;-76
2022/01/05 01:44:00;;;;;;;14.15;1.52;;;2.50;99.90;;;;;;5049907;28;20040;-76
2022/01/05 01:46:26;;;;;;;9.85;1.45;;;2.50;99.90;;;;;;5033486;28;20465;-76
2022/01/05 01:48:51;;;;;;;13.93;2.15;;;2.50;99.90;;;;;;5049816;28;20053;-76
2022/01/05 01:51:20;;;;;;;10.75;2.00;;;2.50;99.90;;;;;;5049902;28;20060;-76
2022/01/05 01:53:46;;;;;;;12.30;1.70;;;2.60;99.90;;;;;;5050265;28;20396;-76
2022/01/05 01:56:12;;;;;;;14.13;2.53;;;2.60;99.90;;;;;;5050089;28;20179;-76
2022/01/05 01:58:38;;;;;;;13.80;1.63;;;2.70;99.90;;;;;;5049876;28;20403;-76
2022/01/05 02:01:04;;;;;;;13.20;2.03;;;2.80;99.90;;;;;;5033877;28;20049;-76
2022/01/05 02:03:30;;;;;;;9.20;1.20;;;2.80;99.90;;;;;;5032786;28;20564;-76
2022/01/05 02:05:56;;;;;;;12.98;1.63;;;2.90;99.90;;;;;;5049776;28;20127;-76
2022/01/05 02:08:22;;;;;;;18.17;2.22;;;2.90;99.90;;;;;;5053640;28;20050;-76
2022/01/05 02:10:49;;;;;;;12.07;1.70;;;3.00;99.90;;;;;;5060008;28;20067;-78
2022/01/05 02:13:15;;;;;;;8.68;1.30;;;3.00;99.90;;;;;;5055255;28;20072;-77
2022/01/05 02:15:41;;;;;;;11.52;1.63;;;3.10;99.90;;;;;;5072674;28;20137;-77
2022/01/05 02:20:33;;;;;;;14.55;1.85;;;3.20;99.90;;;;;;5053372;28;20461;-77
2022/01/05 02:22:58;;;;;;;9.98;1.25;;;3.20;99.90;;;;;;5052964;28;20055;-77
2022/01/05 02:25:25;;;;;;;12.90;1.73;;;3.20;99.90;;;;;;5052566;28;20044;-77
2022/01/05 02:27:53;;;;;;;10.82;1.63;;;3.30;99.90;;;;;;5070897;28;20402;-77
2022/01/05 02:30:23;;;;;;;10.45;1.38;;;3.30;99.90;;;;;;5073072;28;20076;-77
2022/01/05 02:32:49;;;;;;;13.95;2.75;;;3.30;99.90;;;;;;5073296;28;20495;-77
2022/01/05 02:35:15;;;;;;;16.08;2.30;;;3.40;99.90;;;;;;5073032;28;20048;-77
2022/01/05 02:37:46;;;;;;;7.85;1.42;;;3.40;99.90;;;;;;5072868;28;20448;-77
2022/01/05 02:40:14;;;;;;;10.00;1.80;;;3.40;99.90;;;;;;5055987;28;20039;-77
2022/01/05 02:42:41;;;;;;;12.25;1.60;;;3.40;99.90;;;;;;5073948;28;20130;-77
2022/01/05 02:45:09;;;;;;;9.70;1.60;;;3.40;99.90;;;;;;5054521;28;20048;-77
2022/01/05 02:47:34;;;;;;;7.32;1.83;;;3.40;99.90;;;;;;5054032;28;20132;-77
2022/01/05 02:50:01;;;;;;;11.80;1.63;;;3.40;99.90;;;;;;5054116;28;20131;-77
2022/01/05 02:52:27;;;;;;;14.13;2.88;;;3.40;99.90;;;;;;5053605;28;20127;-77
2022/01/05 02:54:52;;;;;;;14.77;2.50;;;3.40;99.90;;;;;;5053644;28;20135;-77
2022/01/05 02:57:18;;;;;;;17.52;2.50;;;3.40;99.90;;;;;;5053451;28;20045;-77
2022/01/05 02:59:44;;;;;;;13.35;1.65;;;3.40;99.90;;;;;;5053736;28;20047;-77
2022/01/05 03:02:09;;;;;;;15.68;2.05;;;3.40;99.90;;;;;;5053310;28;20045;-77
2022/01/05 03:04:35;;;;;;;17.75;2.00;;;3.40;99.90;;;;;;5036396;28;20048;-77
2022/01/05 03:07:01;;;;;;;7.43;1.60;;;3.30;99.90;;;;;;5052913;28;20441;-77
2022/01/05 03:09:27;;;;;;;19.20;2.45;;;3.40;99.90;;;;;;5052126;28;20783;-77
2022/01/05 03:11:53;;;;;;;7.40;1.30;;;3.40;99.90;;;;;;5052897;28;20090;-77
2022/01/05 03:14:19;;;;;;;15.57;2.20;;;3.40;99.90;;;;;;5051955;28;20067;-77
2022/01/05 03:16:45;;;;;;;13.85;2.20;;;3.40;99.90;;;;;;5052421;28;20788;-77
2022/01/05 03:19:11;;;;;;;11.35;2.25;;;3.50;99.90;;;;;;5070683;28;20057;-77
2022/01/05 03:21:36;;;;;;;16.42;2.65;;;3.50;99.90;;;;;;5072128;28;20052;-77
2022/01/05 03:24:02;;;;;;;8.95;1.42;;;3.60;99.90;;;;;;5071011;28;20036;-77
2022/01/05 03:26:28;;;;;;;20.30;2.00;;;3.60;99.90;;;;;;5071684;28;20414;-77
2022/01/05 03:28:53;;;;;;;9.95;1.60;;;3.70;99.90;;;;;;5072318;28;20071;-77
2022/01/05 03:31:19;;;;;;;10.68;1.70;;;3.80;99.90;;;;;;5072087;28;20070;-77
2022/01/05 03:33:45;;;;;;;13.38;2.10;;;3.80;99.90;;;;;;5072090;28;20398;-78
2022/01/05 03:36:10;;;;;;;17.20;2.42;;;3.80;99.90;;;;;;5071867;28;20044;-77
2022/01/05 03:38:36;;;;;;;7.65;1.63;;;3.80;99.90;;;;;;5071765;28;20131;-77
2022/01/05 03:41:02;;;;;;;12.65;1.83;;;3.70;99.90;;;;;;5071792;28;20040;-77
2022/01/05 03:43:27;;;;;;;10.50;1.83;;;3.60;99.90;;;;;;5054956;28;20044;-77
2022/01/05 03:45:53;;;;;;;11.63;1.85;;;3.60;99.90;;;;;;5072692;28;20631;-77
2022/01/05 03:48:20;;;;;;;11.75;2.03;;;3.60;99.90;;;;;;5072516;28;20066;-77
2022/01/05 03:50:46;;;;;;;10.10;2.20;;;3.50;99.90;;;;;;5072209;28;20051;-77
2022/01/05 03:53:12;;;;;;;15.90;2.03;;;3.50;99.90;;;;;;5072852;28;20445;-77
2022/01/05 03:55:40;;;;;;;10.60;1.98;;;3.40;99.90;;;;;;5072456;28;20092;-77
2022/01/05 03:58:06;;;;;;;16.83;2.50;;;3.40;99.90;;;;;;5072368;28;20122;-77
2022/01/05 04:00:34;;;;;;;12.52;2.22;;;3.30;99.90;;;;;;5072369;28;20130;-77
2022/01/05 04:03:00;;;;;;;11.77;1.60;;;3.30;99.90;;;;;;5072400;28;20044;-77
2022/01/05 04:05:28;;;;;;;15.27;2.33;;;3.30;99.90;;;;;;5072271;28;20052;-77
2022/01/05 04:07:53;;;;;;;15.63;2.15;;;3.30;99.90;;;;;;5071341;28;20123;-77
2022/01/05 04:10:19;;;;;;;11.70;1.42;;;3.30;99.90;;;;;;5054458;28;20140;-77
2022/01/05 04:12:46;;;;;;;12.70;1.83;;;3.40;99.90;;;;;;5071425;28;20051;-77
2022/01/05 04:15:12;;;;;;;14.20;2.17;;;3.40;99.90;;;;;;5070918;28;20415;-77
2022/01/05 04:17:38;;;;;;;12.27;2.05;;;3.40;99.90;;;;;;5065432;28;20043;-77
2022/01/05 04:20:04;;;;;;;18.58;2.40;;;3.40;99.90;;;;;;5050951;28;20141;-77
2022/01/05 04:22:30;;;;;;;8.80;1.50;;;3.40;99.90;;;;;;5068938;28;20138;-77
2022/01/05 04:24:55;;;;;;;15.32;1.52;;;3.40;99.90;;;;;;5034027;28;20128;-77
2022/01/05 04:27:22;;;;;;;11.43;1.20;;;3.40;99.90;;;;;;5051770;28;20048;-76
2022/01/05 04:29:47;;;;;;;8.68;1.58;;;3.40;99.90;;;;;;5035654;28;20059;-77
2022/01/05 04:32:13;;;;;;;13.43;1.58;;;3.40;99.90;;;;;;5051620;28;20052;-77
2022/01/05 04:34:39;;;;;;;14.95;2.25;;;3.40;99.90;;;;;;5051229;28;20281;-77
2022/01/05 04:37:05;;;;;;;8.77;1.70;;;3.40;99.90;;;;;;5051819;28;20095;-77
2022/01/05 04:39:30;;;;;;;16.13;1.83;;;3.40;99.90;;;;;;5051837;28;20044;-77
2022/01/05 04:41:56;;;;;;;12.43;2.53;;;3.40;99.90;;;;;;5051108;28;20055;-77
2022/01/05 04:44:22;;;;;;;14.48;2.55;;;3.40;99.90;;;;;;5051528;28;20048;-77
2022/01/05 04:46:47;;;;;;;9.40;1.10;;;3.30;99.90;;;;;;5052013;28;20399;-77
2022/01/05 04:49:13;;;;;;;15.20;1.88;;;3.40;99.90;;;;;;5051455;28;20094;-77
2022/01/05 04:51:39;;;;;;;8.48;1.73;;;3.40;99.90;;;;;;5051771;28;20097;-77
2022/01/05 04:54:05;;;;;;;15.73;1.73;;;3.40;99.90;;;;;;5051081;28;20051;-77
2022/01/05 04:56:30;;;;;;;8.40;1.25;;;3.40;99.90;;;;;;5051640;28;20052;-77
2022/01/05 04:58:56;;;;;;;11.32;1.40;;;3.40;99.90;;;;;;5051591;28;20040;-77
2022/01/05 05:01:23;;;;;;;8.13;1.08;;;3.40;99.90;;;;;;5051501;28;20041;-77
2022/01/05 05:03:49;;;;;;;14.82;1.60;;;3.50;99.90;;;;;;5034722;28;20060;-76
2022/01/05 05:06:15;;;;;;;6.93;0.95;;;3.50;99.90;;;;;;5051436;28;20064;-77
2022/01/05 05:08:40;;;;;;;12.23;1.92;;;3.50;99.90;;;;;;5050829;28;20044;-77
2022/01/05 05:11:06;;;;;;;10.20;1.23;;;3.60;99.90;;;;;;5051747;28;20060;-77
2022/01/05 05:13:31;;;;;;;9.95;1.08;;;3.60;99.90;;;;;;5050983;28;20051;-77
2022/01/05 05:15:58;;;;;;;9.45;1.85;;;3.60;99.90;;;;;;5051371;28;20135;-77
2022/01/05 05:18:24;;;;;;;14.10;1.38;;;3.70;99.90;;;;;;5063486;28;20131;-77
2022/01/05 05:20:49;;;;;;;18.00;1.92;;;3.70;99.90;;;;;;5071099;28;20040;-77
2022/01/05 05:23:16;;;;;;;13.82;1.75;;;3.70;99.90;;;;;;5071507;28;20080;-77
2022/01/05 05:25:42;;;;;;;13.90;1.98;;;3.80;99.90;;;;;;5071067;28;20044;-77
2022/01/05 05:28:07;;;;;;;16.70;2.38;;;3.80;99.90;;;;;;5071035;28;20422;-77
2022/01/05 05:30:34;;;;;;;9.23;2.35;;;3.90;99.90;;;;;;5071315;28;20056;-77
2022/01/05 05:33:00;;;;;;;12.02;1.33;;;4.00;99.90;;;;;;5071034;28;20070;-77
2022/01/05 05:35:28;;;;;;;11.88;1.58;;;4.00;99.90;;;;;;5089238;28;20067;-77
2022/01/05 05:37:55;;;;;;;14.90;1.85;;;4.00;99.90;;;;;;5071178;28;20128;-77
2022/01/05 05:40:21;;;;;;;10.40;1.63;;;4.10;99.90;;;;;;5070590;28;20047;-77
2022/01/05 05:42:47;;;;;;;12.77;2.78;;;4.10;99.90;;;;;;5054340;28;20083;-77
2022/01/05 05:45:13;;;;;;;11.93;2.30;;;4.10;99.90;;;;;;5071167;28;20036;-77
2022/01/05 05:47:39;;;;;;;14.25;1.85;;;4.10;99.90;;;;;;5072620;28;20050;-77
2022/01/05 05:50:05;;;;;;;13.73;1.75;;;4.10;99.90;;;;;;5074348;28;20445;-77
2022/01/05 05:52:31;;;;;;;16.75;2.55;;;4.10;99.90;;;;;;5058106;28;20470;-77
2022/01/05 05:54:56;;;;;;;15.77;2.08;;;4.10;99.90;;;;;;5074641;28;20115;-77
2022/01/05 05:57:22;;;;;;;16.67;2.22;;;4.10;99.90;;;;;;5074663;28;20048;-78
2022/01/05 05:59:48;;;;;;;12.60;1.92;;;4.10;99.90;;;;;;5074820;28;20048;-78
2022/01/05 06:02:13;;;;;;;12.35;1.95;;;4.00;99.90;;;;;;5057960;28;20455;-77
2022/01/05 06:04:39;;;;;;;7.88;1.50;;;4.00;99.90;;;;;;5073787;28;20040;-77
2022/01/05 06:07:04;;;;;;;9.40;1.38;;;4.00;99.90;;;;;;5073722;28;20048;-78
2022/01/05 06:09:30;;;;;;;8.95;1.70;;;4.00;99.90;;;;;;5073067;28;20055;-78
2022/01/05 06:11:56;;;;;;;6.95;1.05;;;4.00;99.90;;;;;;5073380;28;20052;-78
2022/01/05 06:14:21;;;;;;;11.70;1.45;;;3.90;99.90;;;;;;5073483;28;20086;-78
2022/01/05 06:16:47;;;;;;;5.22;1.05;;;3.90;99.90;;;;;;5073347;28;20070;-78
2022/01/05 06:19:12;;;;;;;7.40;1.00;;;3.80;99.90;;;;;;5054169;28;20041;-78
2022/01/05 06:21:38;;;;;;;7.45;1.08;;;3.80;99.90;;;;;;5052727;28;20045;-77
2022/01/05 06:24:04;;;;;;;11.15;1.25;;;3.80;99.90;;;;;;5053361;28;20055;-78
2022/01/05 06:26:30;;;;;;;10.00;1.85;;;3.70;99.90;;;;;;5053622;28;20406;-78
2022/01/05 06:28:55;;;;;;;6.55;1.10;;;3.70;99.90;;;;;;5053011;28;20041;-78
2022/01/05 06:31:21;;;;;;;4.82;1.15;;;3.70;99.90;;;;;;5053319;28;20044;-78
2022/01/05 06:33:46;;;;;;;15.05;1.38;;;3.70;99.90;;;;;;5052904;28;20732;-78
2022/01/05 06:36:12;;;;;;;5.15;0.63;;;3.80;99.90;;;;;;5052983;28;20063;-77
2022/01/05 06:38:38;;;;;;;7.18;1.10;;;3.80;99.90;;;;;;5052830;28;20186;-78
2022/01/05 06:41:03;;;;;;;12.45;1.33;;;3.90;99.90;;;;;;5052861;28;20517;-78
2022/01/05 06:43:30;;;;;;;11.38;1.40;;;3.90;99.90;;;;;;5036113;28;20415;-78
2022/01/05 06:45:57;;;;;;;13.20;1.40;;;3.90;99.90;;;;;;5036560;28;20465;-78
2022/01/05 06:48:22;;;;;;;11.30;1.85;;;3.90;99.90;;;;;;5052093;28;20097;-75
2022/01/05 06:50:48;;;;;;;11.52;1.80;;;4.00;99.90;;;;;;5052893;28;20056;-76
2022/01/05 06:53:14;;;;;;;15.05;1.85;;;4.00;99.90;;;;;;5064186;28;20069;-76
2022/01/05 06:55:40;;;;;;;10.98;2.00;;;4.00;99.90;;;;;;5072217;28;20048;-77
2022/01/05 06:58:06;;;;;;;8.23;1.20;;;4.00;99.90;;;;;;5072225;28;20052;-77
2022/01/05 07:00:31;;;;;;;11.20;1.88;;;4.00;99.90;;;;;;5072381;28;20415;-78
2022/01/05 07:02:57;;;;;;;13.68;1.90;;;4.00;99.90;;;;;;5072632;28;20040;-77
2022/01/05 07:05:23;;;;;;;12.85;1.65;;;4.10;99.90;;;;;;5072500;28;20051;-77
2022/01/05 07:07:49;;;;;;;10.82;1.40;;;4.10;99.90;;;;;;5072658;28;20051;-78
2022/01/05 07:10:15;;;;;;;9.82;1.38;;;4.10;99.90;;;;;;5072056;28;20048;-77
2022/01/05 07:12:41;;;;;;;13.07;1.33;;;4.10;99.90;;;;;;5071944;28;20079;-78
2022/01/05 07:15:07;;;;;;;13.50;1.58;;;4.10;99.90;;;;;;5072225;28;20149;-77
2022/01/05 07:17:33;;;;;;;12.35;1.50;;;4.10;99.90;;;;;;5050738;28;20427;-78
2022/01/05 07:19:59;;;;;;;13.40;2.65;;;4.10;99.90;;;;;;5052623;28;20040;-77
2022/01/05 07:22:25;;;;;;;11.27;1.33;;;4.20;99.90;;;;;;5051912;28;20117;-77
2022/01/05 07:24:52;;;;;;;8.93;1.50;;;4.30;99.90;;;;;;5051320;28;20071;-78
2022/01/05 07:27:18;;;;;;;11.95;1.88;;;4.30;99.90;;;;;;5035850;28;20403;-77
2022/01/05 07:29:43;;;;;;;13.00;2.40;;;4.40;99.90;;;;;;5035079;28;20036;-77
2022/01/05 07:32:09;;;;;;;14.23;1.45;;;4.40;99.90;;;;;;5051698;28;20102;-77
2022/01/05 07:34:35;;;;;;;9.23;2.17;;;4.40;99.90;;;;;;5035497;28;20099;-78
2022/01/05 07:37:01;;;;;;;14.80;1.20;;;4.40;99.90;;;;;;5035191;28;20044;-77
2022/01/05 07:39:26;;;;;;;8.77;1.23;;;4.40;99.90;;;;;;5051916;28;20418;-78
2022/01/05 07:41:52;;;;;;;12.32;1.08;;;4.40;99.90;;;;;;5034844;28;20182;-78
2022/01/05 07:44:18;;;;;;;10.30;2.40;;;4.40;99.90;;;;;;5051660;28;20053;-77
2022/01/05 07:46:44;;;;;;;8.63;1.60;;;4.40;99.90;;;;;;5051384;28;20047;-77
2022/01/05 07:49:09;;;;;;;10.80;1.25;;;4.40;99.90;;;;;;5051856;28;20044;-78
2022/01/05 07:51:35;;;;;;;11.75;1.90;;;4.40;99.90;;;;;;5051605;28;20036;-78
2022/01/05 07:54:01;;;;;;;12.82;1.13;;;4.30;99.90;;;;;;5051315;28;20467;-77
2022/01/05 07:56:27;;;;;;;9.95;1.05;;;4.30;99.90;;;;;;5051602;28;20353;-77
2022/01/05 07:58:54;;;;;;;14.32;1.60;;;4.30;99.90;;;;;;5051332;28;20621;-78
2022/01/05 08:01:20;;;;;;;16.05;1.95;;;4.20;99.90;;;;;;5051453;28;20040;-78
2022/01/05 08:03:46;;;;;;;10.27;1.23;;;4.20;99.90;;;;;;5051018;28;20056;-78
2022/01/05 08:06:12;;;;;;;10.65;1.35;;;4.20;99.90;;;;;;5051451;28;20044;-77
2022/01/05 08:08:38;;;;;;;14.02;2.03;;;4.20;99.90;;;;;;5051913;28;20049;-78
2022/01/05 08:11:03;;;;;;;15.05;1.92;;;4.30;99.90;;;;;;5051491;28;20131;-77
2022/01/05 08:13:29;;;;;;;16.00;1.60;;;4.30;99.90;;;;;;5052407;28;20049;-77
2022/01/05 08:15:55;;;;;;;11.70;1.50;;;4.50;99.90;;;;;;5035368;28;20529;-77
2022/01/05 08:18:21;;;;;;;13.50;1.95;;;4.50;99.90;;;;;;5052207;28;20040;-77
2022/01/05 08:20:47;;;;;;;13.63;1.95;;;4.50;99.90;;;;;;5051998;28;20055;-77
2022/01/05 08:23:21;;;;;;;15.15;2.00;;;4.60;99.90;;;;;;5035039;28;20401;-78
2022/01/05 08:25:48;;;;;;;10.50;1.73;;;4.60;99.90;;;;;;5051987;28;20135;-78
2022/01/05 08:28:15;;;;;;;15.70;2.15;;;4.70;99.90;;;;;;5035532;28;20044;-77
2022/01/05 08:30:41;;;;;;;13.90;1.60;;;4.70;99.90;;;;;;5051779;28;20094;-78
2022/01/05 08:33:07;;;;;;;12.77;2.22;;;4.70;99.90;;;;;;5051979;28;20048;-78
2022/01/05 08:35:33;;;;;;;16.75;1.73;;;4.80;99.90;;;;;;5051632;28;20510;-78
2022/01/05 08:37:59;;;;;;;11.18;2.03;;;4.70;99.90;;;;;;5052062;28;20096;-78
2022/01/05 08:40:26;;;;;;;12.95;2.00;;;4.80;99.90;;;;;;5051576;28;20045;-78
2022/01/05 08:42:53;;;;;;;20.85;2.67;;;4.80;99.90;;;;;;5050205;28;20424;-78
2022/01/05 08:45:19;;;;;;;13.50;2.10;;;4.80;99.90;;;;;;5050106;28;20400;-77
2022/01/05 08:47:48;;;;;;;17.02;2.70;;;4.80;99.90;;;;;;5049938;28;20513;-78
2022/01/05 08:50:19;;;;;;;12.63;2.40;;;4.90;99.90;;;;;;5051851;28;20451;-78
2022/01/05 08:52:45;;;;;;;11.10;1.88;;;4.90;99.90;;;;;;5051825;28;20040;-77
2022/01/05 08:55:13;;;;;;;14.02;1.90;;;4.90;99.90;;;;;;5051140;28;20384;-78
2022/01/05 08:57:40;;;;;;;18.50;1.77;;;5.00;99.90;;;;;;5051535;28;20045;-78
2022/01/05 09:00:08;;;;;;;16.05;2.70;;;5.00;99.90;;;;;;5034748;28;20044;-78
2022/01/05 09:02:34;;;;;;;14.40;2.72;;;5.00;99.90;;;;;;5051106;28;20083;-78
2022/01/05 09:04:59;;;;;;;11.93;1.67;;;5.00;99.90;;;;;;5034568;28;20099;-78
2022/01/05 09:07:25;;;;;;;24.27;2.78;;;5.00;99.90;;;;;;5051048;28;20455;-78
2022/01/05 09:09:50;;;;;;;17.83;3.40;;;5.00;99.90;;;;;;5049939;28;20491;-77
2022/01/05 09:12:16;;;;;;;18.97;2.73;;;5.00;99.90;;;;;;5050343;28;20412;-78
2022/01/05 09:14:42;;;;;;;17.77;2.70;;;5.10;99.90;;;;;;5033631;28;21063;-78
2022/01/05 09:17:08;;;;;;;20.27;3.20;;;5.10;99.90;;;;;;5051675;28;20408;-77
2022/01/05 09:19:35;;;;;;;19.17;2.80;;;5.10;99.90;;;;;;5069978;28;20971;-78
2022/01/05 09:22:01;;;;;;;18.67;2.90;;;5.10;99.90;;;;;;5073174;28;20412;-78
2022/01/05 09:24:27;;;;;;;22.52;3.63;;;5.20;99.90;;;;;;5074163;28;20455;-78
2022/01/05 09:26:56;;;;;;;15.50;2.95;;;5.30;99.90;;;;;;5073586;28;20402;-78
2022/01/05 09:29:23;;;;;;;25.47;4.00;;;5.30;99.90;;;;;;5074003;28;20406;-78
2022/01/05 09:31:49;;;;;;;20.10;3.30;;;5.40;99.90;;;;;;5073959;28;20401;-78
2022/01/05 09:34:16;;;;;;;18.02;3.50;;;5.40;99.90;;;;;;5073470;28;20409;-78
2022/01/05 09:36:47;;;;;;;24.02;3.65;;;5.50;99.90;;;;;;5073798;28;21092;-78
2022/01/05 09:41:57;;;;;;;26.33;3.93;;;5.60;99.90;;;;;;5073850;28;20406;-78
2022/01/05 09:44:33;;;;;;;28.13;4.18;;;5.80;99.90;;;;;;5073787;28;20562;-78
2022/01/05 09:47:14;;;;;;;26.33;5.05;;;5.80;99.90;;;;;;5073594;28;20405;-78
2022/01/05 09:49:59;;;;;;;23.40;4.78;;;5.90;99.90;;;;;;5073503;28;20414;-79
2022/01/05 09:52:26;;;;;;;29.50;4.78;;;5.90;99.90;;;;;;5073096;28;20398;-78
2022/01/05 09:54:53;;;;;;;22.13;4.20;;;5.90;99.90;;;;;;5073413;28;20413;-79
2022/01/05 09:57:21;;;;;;;23.30;4.35;;;6.10;99.90;;;;;;5073712;28;20394;-78
2022/01/05 09:59:47;;;;;;;23.65;4.22;;;6.10;99.90;;;;;;5073208;28;20404;-78
2022/01/05 10:02:14;;;;;;;27.33;4.30;;;6.20;99.90;;;;;;5073100;28;20842;-78
2022/01/05 10:04:41;;;;;;;24.73;4.00;;;6.20;99.90;;;;;;5073682;28;20472;-78
2022/01/05 10:07:08;;;;;;;22.02;3.63;;;6.20;99.90;;;;;;5056802;28;20406;-78
2022/01/05 10:09:39;;;;;;;23.35;4.05;;;6.30;99.90;;;;;;5073046;28;20516;-78
2022/01/05 10:12:06;;;;;;;17.63;3.33;;;6.30;99.90;;;;;;5072876;28;20520;-78
2022/01/05 10:14:32;;;;;;;18.45;3.40;;;6.40;99.90;;;;;;5091603;28;20441;-78
2022/01/05 10:17:07;;;;;;;16.75;2.97;;;6.40;99.90;;;;;;5072390;28;20405;-78
2022/01/05 10:19:34;;;;;;;20.88;3.60;;;6.40;99.90;;;;;;5052284;28;20408;-78
2022/01/05 10:22:00;;;;;;;20.52;3.47;;;6.40;99.90;;;;;;5051326;28;20408;-78
2022/01/05 10:24:46;;;;;;;18.85;3.38;;;6.50;99.90;;;;;;5052291;28;20513;-78
2022/01/05 10:27:16;;;;;;;24.77;4.18;;;6.50;99.90;;;;;;5035445;28;20403;-78
2022/01/05 10:29:54;;;;;;;19.33;3.47;;;6.60;99.90;;;;;;5052003;28;20408;-78
2022/01/05 10:32:20;;;;;;;18.67;3.42;;;6.60;99.90;;;;;;5051111;28;20949;-78
2022/01/05 10:35:07;;;;;;;19.80;4.00;;;6.70;99.90;;;;;;5052194;28;20450;-78
2022/01/05 10:37:34;;;;;;;22.40;3.95;;;6.70;99.90;;;;;;5051244;28;21331;-78
2022/01/05 10:40:07;;;;;;;22.33;4.07;;;6.70;99.90;;;;;;5052018;28;20426;-78
2022/01/05 10:42:33;;;;;;;19.80;4.20;;;6.80;99.90;;;;;;5034623;28;20444;-78
2022/01/05 10:44:59;;;;;;;22.15;4.18;;;6.80;99.90;;;;;;5051884;28;20445;-78
2022/01/05 10:47:25;;;;;;;21.50;3.47;;;6.90;99.90;;;;;;5051797;28;20404;-78
2022/01/05 10:49:52;;;;;;;20.92;3.83;;;7.00;99.90;;;;;;5052550;28;20423;-78
2022/01/05 10:52:34;;;;;;;22.55;3.85;;;7.00;99.90;;;;;;5052848;28;20403;-78
2022/01/05 10:55:37;;;;;;;23.73;4.80;;;7.00;99.90;;;;;;5052057;28;20499;-78
2022/01/05 10:58:06;;;;;;;24.90;5.00;;;6.90;99.90;;;;;;5031009;28;20416;-78
2022/01/05 11:00:42;;;;;;;27.35;4.45;;;6.80;99.90;;;;;;5051832;28;20465;-78
2022/01/05 11:03:28;;;;;;;32.25;5.32;;;6.70;99.90;;;;;;5052036;28;20431;-78
2022/01/05 11:06:16;;;;;;;26.20;5.57;;;6.80;99.90;;;;;;5035236;28;20408;-78
2022/01/05 11:08:54;;;;;;;26.10;4.85;;;7.10;99.90;;;;;;5035159;28;20411;-78
2022/01/05 11:11:43;;;;;;;29.25;5.93;;;7.40;99.90;;;;;;5070346;28;20502;-78
2022/01/05 11:14:10;;;;;;;26.65;4.80;;;7.50;99.90;;;;;;5051605;28;20494;-78
2022/01/05 11:16:41;;;;;;;29.87;5.40;;;7.40;99.90;;;;;;5051773;28;20412;-78
2022/01/05 11:19:16;;;;;;;29.63;5.30;;;7.50;99.90;;;;;;5069528;28;20414;-77
2022/01/05 11:22:02;;;;;;;26.92;5.28;;;7.60;99.90;;;;;;5071986;28;20463;-78
2022/01/05 11:24:30;;;;;;;27.42;5.15;;;7.80;99.90;;;;;;5071352;28;20414;-78
2022/01/05 11:26:57;;;;;;;28.67;5.50;;;8.20;99.90;;;;;;5071991;28;20406;-78
2022/01/05 11:29:23;;;;;;;25.90;4.95;;;8.30;99.90;;;;;;5071943;28;20435;-78
2022/01/05 11:31:49;;;;;;;25.75;5.22;;;8.30;99.90;;;;;;5071552;28;20406;-78
2022/01/05 11:34:15;;;;;;;23.73;5.47;;;8.20;99.90;;;;;;5089367;28;20402;-78
2022/01/05 11:36:42;;;;;;;23.13;4.82;;;8.30;99.90;;;;;;5055171;28;20415;-78
2022/01/05 11:39:08;;;;;;;19.52;4.03;;;8.30;99.90;;;;;;5071558;28;20498;-78
2022/01/05 11:41:41;;;;;;;24.55;4.65;;;8.30;99.90;;;;;;5071317;28;20406;-77
2022/01/05 11:44:07;;;;;;;26.73;4.93;;;8.20;99.90;;;;;;5088578;28;20494;-78
2022/01/05 11:46:33;;;;;;;21.75;4.15;;;8.20;99.90;;;;;;5070772;28;20402;-78
2022/01/05 11:48:58;;;;;;;18.63;3.90;;;8.10;99.90;;;;;;5089427;28;20756;-78
2022/01/05 11:51:42;;;;;;;26.90;4.70;;;8.10;99.90;;;;;;5071556;28;20481;-78
2022/01/05 11:54:22;;;;;;;20.10;4.40;;;8.10;99.90;;;;;;5071223;28;20402;-78
2022/01/05 11:56:51;;;;;;;22.05;4.13;;;8.20;99.90;;;;;;5088830;28;20537;-77
2022/01/05 11:59:20;;;;;;;25.38;4.72;;;8.20;99.90;;;;;;5071445;28;20447;-78
2022/01/05 12:01:59;;;;;;;24.63;4.93;;;8.10;99.90;;;;;;5089383;28;20406;-78
2022/01/05 12:04:25;;;;;;;21.92;4.07;;;8.00;99.90;;;;;;5071155;28;20414;-78
2022/01/05 12:06:51;;;;;;;26.15;5.30;;;8.00;99.90;;;;;;5088746;28;20390;-78
2022/01/05 12:09:25;;;;;;;22.43;4.63;;;8.00;99.90;;;;;;5070820;28;20411;-78
2022/01/05 12:11:51;;;;;;;27.25;5.13;;;8.10;99.90;;;;;;5070800;28;20406;-78
2022/01/05 12:14:20;;;;;;;26.63;4.72;;;8.10;99.90;;;;;;5070784;28;20420;-78
2022/01/05 12:17:01;;;;;;;25.63;4.38;;;8.30;99.90;;;;;;5070640;28;20938;-77
2022/01/05 12:19:34;;;;;;;19.63;4.43;;;8.50;99.90;;;;;;5033459;28;20476;-78
2022/01/05 12:22:03;;;;;;;23.23;3.83;;;8.40;99.90;;;;;;5050447;28;20979;-78
2022/01/05 12:25:27;;;;;;;20.48;3.72;;;8.30;99.90;;;;;;5050883;28;20408;-78
2022/01/05 12:27:58;;;;;;;19.63;4.13;;;8.20;99.90;;;;;;5048748;28;20415;-78
2022/01/05 12:30:26;;;;;;;19.65;3.35;;;8.10;99.90;;;;;;5050338;28;20506;-78
2022/01/05 12:33:14;;;;;;;18.58;3.72;;;8.10;99.90;;;;;;5050430;28;20404;-78
2022/01/05 12:35:46;;;;;;;19.73;3.25;;;8.20;99.90;;;;;;5050543;28;20412;-78
2022/01/05 12:38:29;;;;;;;14.98;3.55;;;8.30;99.90;;;;;;5050364;28;20411;-78
2022/01/05 12:40:55;;;;;;;16.63;3.47;;;8.20;99.90;;;;;;5050749;28;20411;-78
2022/01/05 12:43:20;;;;;;;21.03;3.67;;;8.40;99.90;;;;;;5050494;28;20424;-78
2022/01/05 12:45:46;;;;;;;20.00;4.13;;;8.50;99.90;;;;;;5050273;28;20412;-77
2022/01/05 12:48:30;;;;;;;17.77;3.50;;;8.50;99.90;;;;;;5033755;28;20437;-78
2022/01/05 12:51:20;;;;;;;22.88;4.00;;;8.40;99.90;;;;;;5050429;28;20473;-78
2022/01/05 12:54:19;;;;;;;20.50;4.00;;;8.30;99.90;;;;;;5033442;28;20415;-77
2022/01/05 12:56:51;;;;;;;22.67;4.32;;;8.50;99.90;;;;;;5050123;28;20461;-78